Decoded Metar for KSGH (SPRINGFIELD MUNI in OH, USA) (IATA:SGH) | Meteo·Mobile Aviation Weather
aviador You're here:

KSGH Decoded Metar

SPRINGFIELD MUNI in OH, USA
Report Time2019-03-21 14:56:00
UTC Time2019-03-22 09:55:44
Flight Rules Old
Wind250° at 05 kt
W.Decomp.*RWY 24: 4.9 kt HW 1.2 kt RCW
RWY 33: 1.2 kt HW 4.9 kt LCW
W.Rank250° ranks 8
Current wind is below 250° avg. (9.5)
Visibility9999 m
Phenomena:N/A
Clouds:Broken 005 Hf
Overcast 012 Hf
Expected CloudBase > 400 ft AGL from Temp-Dew spread
Ceiling500 ft
Temp07°C (ISA -6)
Dew Point06°C (93% RH)
AAT4.3°C
QNH1012 hPa
Density Alt509 ft
Elevation1,053 ft
Report Wrong Elevation
Raw Report
KSGH 211456Z AUTO 25005KT 7SM BKN005 OVC012 07/06 A2989 RMK AO2
RAE06 CIG 005V008 SLP127 P0000 60001 T00670061 53000=

Extra information for KSGH:More info

Metar Taf Metar & Taf Last 4 Metars F.Rules Stats Wind Profile Meteogram Temp Stats Airport Information Weather charts Add Link Nearby VenuesMetar ALERT Operation Metar Decoded Social comments

AIRNAV info for KSGH